Main page
METAR-TAF:

METAR-TAF

Airports :

Draughon–Miller Central Texas Regional Airport

Temple, Texas, United States

latitude: 31-09N, longitude: 097-24W, elevation: 682 ft

Current weather observation

The report was made 19 minutes ago, at 20:51 UTC
Wind 3 mph from the East
Temperature 57°F
Humidity 44%
Pressure 30.28 in. Hg
Visibility: 10 miles
Broken clouds at a height of 8500 ft

METAR: KTPL 212051Z AUTO 09003KT 10SM BKN085 14/02 A3028 RMK AO2 SLP272 T01440017 56024

Time: 15:10 (21:10 UTC)


TAF: missing

Weather observations and forecasts of more than 4000 airports (METAR and TAF reports).

The available stations are represented by yellow and red dots on the map.

Hover mouse over dot to see the name of the station.

Then click to see weather observations and forecasts.

To change the map : click on the green buttons with a black cross to zoom in, on the green button with a dash to zoom out, or on the green arrows for adjacent maps.


METAR-TAF: